createdAt,value
2018-08-20T00:01:44.391Z,44.50
2018-08-20T00:04:12.511Z,44.50
2018-08-20T00:06:55.157Z,44.40
2018-08-20T00:09:35.821Z,44.40
2018-08-20T00:12:04.768Z,44.40
2018-08-20T00:14:32.940Z,44.50
2018-08-20T00:17:01.471Z,44.50
2018-08-20T00:19:29.583Z,44.60
2018-08-20T00:21:57.675Z,44.70
2018-08-20T00:24:25.784Z,44.60
2018-08-20T00:26:53.899Z,44.50
2018-08-20T00:29:21.987Z,44.60
2018-08-20T00:31:50.591Z,44.70
2018-08-20T00:34:18.718Z,44.70
2018-08-20T00:36:47.835Z,44.70
2018-08-20T00:39:15.935Z,44.70
2018-08-20T00:41:44.403Z,44.80
2018-08-20T00:44:14.552Z,44.80
2018-08-20T00:46:43.992Z,44.70
2018-08-20T00:49:12.805Z,44.80
2018-08-20T00:51:40.899Z,44.80
2018-08-20T00:54:09.032Z,44.80
2018-08-20T00:56:37.142Z,45.40
2018-08-20T00:59:05.240Z,44.80
2018-08-20T01:01:33.692Z,44.90
2018-08-20T01:04:02.619Z,44.90
2018-08-20T01:06:30.884Z,44.90
2018-08-20T01:08:59.095Z,44.80
2018-08-20T01:11:27.212Z,44.90
2018-08-20T01:13:55.303Z,44.80
2018-08-20T01:16:23.440Z,44.90
2018-08-20T01:18:51.552Z,44.90
2018-08-20T01:21:19.663Z,44.90
2018-08-20T01:23:47.761Z,44.80
2018-08-20T01:26:15.886Z,44.70
2018-08-20T01:28:44.004Z,44.70
2018-08-20T01:31:12.108Z,44.70
2018-08-20T01:33:46.823Z,44.70
2018-08-20T01:36:14.931Z,44.90
2018-08-20T01:38:43.083Z,44.90
2018-08-20T01:41:11.404Z,44.80
2018-08-20T01:43:39.519Z,44.90
2018-08-20T01:46:07.808Z,45.00
2018-08-20T01:48:35.895Z,45.00
2018-08-20T01:51:04.003Z,45.00
2018-08-20T01:53:32.128Z,45.00
2018-08-20T01:56:00.237Z,44.90
2018-08-20T01:58:28.368Z,44.90
2018-08-20T02:00:56.497Z,45.00
2018-08-20T02:03:24.639Z,44.90
2018-08-20T02:05:52.764Z,45.00
2018-08-20T02:08:20.847Z,44.90
2018-08-20T02:10:48.938Z,45.00
2018-08-20T02:13:17.119Z,44.90
2018-08-20T02:15:45.227Z,44.90
2018-08-20T02:18:13.356Z,45.00
2018-08-20T02:20:41.474Z,45.00
2018-08-20T02:23:09.612Z,45.10
2018-08-20T02:25:37.732Z,45.00
2018-08-20T02:28:06.051Z,45.00
2018-08-20T02:30:34.269Z,45.10
2018-08-20T02:33:02.411Z,45.20
2018-08-20T02:35:30.527Z,45.20
2018-08-20T02:37:58.656Z,45.20
2018-08-20T02:40:26.774Z,45.20
2018-08-20T02:42:54.891Z,45.10
2018-08-20T02:45:22.998Z,45.10
2018-08-20T02:47:51.136Z,45.10
2018-08-20T02:50:19.235Z,45.10
2018-08-20T02:52:47.651Z,45.10
2018-08-20T02:55:15.774Z,45.20
2018-08-20T02:57:43.902Z,45.40
2018-08-20T03:00:13.423Z,45.20
2018-08-20T03:02:41.540Z,45.20
2018-08-20T03:05:10.616Z,45.20
2018-08-20T03:07:38.737Z,45.20
2018-08-20T03:10:08.848Z,45.20
2018-08-20T03:12:36.992Z,45.20
2018-08-20T03:15:05.982Z,45.20
2018-08-20T03:17:34.109Z,45.10
2018-08-20T03:20:02.215Z,45.20
2018-08-20T03:22:30.312Z,45.30
2018-08-20T03:24:58.412Z,45.20
2018-08-20T03:27:26.535Z,45.30
2018-08-20T03:29:54.632Z,45.30
2018-08-20T03:32:22.758Z,45.30
2018-08-20T03:34:50.859Z,45.40
2018-08-20T03:37:19.019Z,45.30
2018-08-20T03:39:47.124Z,45.30
2018-08-20T03:42:15.311Z,45.30
2018-08-20T03:44:43.440Z,45.30
2018-08-20T03:47:11.529Z,45.40
2018-08-20T03:49:39.628Z,45.30
2018-08-20T03:52:07.784Z,45.30
2018-08-20T03:54:35.874Z,45.30
2018-08-20T03:57:03.973Z,45.20
2018-08-20T03:59:35.698Z,45.30
2018-08-20T04:02:04.947Z,45.20
2018-08-20T04:04:33.042Z,45.20
2018-08-20T04:07:06.096Z,45.30
2018-08-20T04:09:34.486Z,45.40
2018-08-20T04:12:03.307Z,45.50
2018-08-20T04:14:31.496Z,45.50
2018-08-20T04:16:59.807Z,45.50
2018-08-20T04:19:28.343Z,45.40
2018-08-20T04:21:56.804Z,45.50
2018-08-20T04:24:24.908Z,45.50
2018-08-20T04:26:53.053Z,45.60
2018-08-20T04:29:21.596Z,45.50
2018-08-20T04:31:49.696Z,45.50
2018-08-20T04:34:17.903Z,45.50
2018-08-20T04:36:46.034Z,45.60
2018-08-20T04:39:14.205Z,45.60
2018-08-20T04:41:42.496Z,45.60
2018-08-20T04:44:10.593Z,45.60
2018-08-20T04:46:38.714Z,45.60
2018-08-20T04:49:06.851Z,45.50
2018-08-20T04:51:35.025Z,45.60
2018-08-20T04:54:03.060Z,45.60
2018-08-20T04:56:31.185Z,45.60
2018-08-20T04:58:59.304Z,45.60
2018-08-20T05:01:27.446Z,45.60
2018-08-20T05:03:55.577Z,45.60
2018-08-20T05:06:23.646Z,45.60
2018-08-20T05:08:51.746Z,45.60
2018-08-20T05:11:19.847Z,45.60
2018-08-20T05:13:47.969Z,45.60
2018-08-20T05:16:16.087Z,45.60
2018-08-20T05:18:44.246Z,45.60
2018-08-20T05:21:12.336Z,45.60
2018-08-20T05:23:40.431Z,45.70
2018-08-20T05:26:08.520Z,45.60
2018-08-20T05:28:36.603Z,45.60
2018-08-20T05:31:04.755Z,45.60
2018-08-20T05:33:32.865Z,45.50
2018-08-20T05:36:00.943Z,45.60
2018-08-20T05:38:29.079Z,45.50
2018-08-20T05:40:57.188Z,45.50
2018-08-20T05:43:25.331Z,45.50
2018-08-20T05:45:53.497Z,45.40
2018-08-20T05:48:21.595Z,45.40
2018-08-20T05:50:49.746Z,45.40
2018-08-20T05:53:17.959Z,45.40
2018-08-20T05:55:46.110Z,45.50
2018-08-20T05:58:15.141Z,45.60
2018-08-20T06:00:43.371Z,45.50
2018-08-20T06:03:11.480Z,45.40
2018-08-20T06:05:39.610Z,45.30
2018-08-20T06:08:07.721Z,45.30
2018-08-20T06:10:35.881Z,45.30
2018-08-20T06:13:04.001Z,45.20
2018-08-20T06:15:32.131Z,45.20
2018-08-20T06:18:00.249Z,45.20
2018-08-20T06:20:28.420Z,45.20
2018-08-20T06:22:56.544Z,45.20
2018-08-20T06:25:24.708Z,45.20
2018-08-20T06:27:52.837Z,45.40
2018-08-20T06:30:20.963Z,45.50
2018-08-20T06:32:49.062Z,45.40
2018-08-20T06:35:17.209Z,45.30
2018-08-20T06:37:45.326Z,45.40
2018-08-20T06:40:14.683Z,45.30
2018-08-20T06:42:42.840Z,45.60
2018-08-20T06:45:12.868Z,45.70
2018-08-20T06:47:41.588Z,45.70
2018-08-20T06:50:09.723Z,45.70
2018-08-20T06:52:37.860Z,45.70
2018-08-20T06:55:05.973Z,45.80
2018-08-20T06:57:34.104Z,45.90
2018-08-20T07:00:02.228Z,45.80
2018-08-20T07:02:30.379Z,45.90
2018-08-20T07:04:58.511Z,45.80
2018-08-20T07:07:26.648Z,45.70
2018-08-20T07:09:54.772Z,45.80
2018-08-20T07:12:22.896Z,45.70
2018-08-20T07:14:51.020Z,45.50
2018-08-20T07:17:19.139Z,45.40
2018-08-20T07:19:47.319Z,45.30
2018-08-20T07:22:15.439Z,45.40
2018-08-20T07:24:43.564Z,45.10
2018-08-20T07:27:11.705Z,45.00
2018-08-20T07:29:41.774Z,44.90
2018-08-20T07:32:12.218Z,44.80
2018-08-20T07:34:42.404Z,44.80
2018-08-20T07:37:13.708Z,44.80
2018-08-20T07:39:45.945Z,44.70
2018-08-20T07:42:14.112Z,44.60
2018-08-20T07:44:43.092Z,44.70
2018-08-20T07:47:11.536Z,44.70
2018-08-20T07:49:39.805Z,44.40
2018-08-20T07:52:09.052Z,44.30
2018-08-20T07:54:38.052Z,44.30
2018-08-20T07:57:07.236Z,44.40
2018-08-20T07:59:35.362Z,44.50
2018-08-20T08:02:03.483Z,44.80
2018-08-20T08:04:31.611Z,45.20
2018-08-20T08:06:59.702Z,45.30
2018-08-20T08:09:28.008Z,45.10
2018-08-20T08:11:56.348Z,45.10
2018-08-20T08:14:24.447Z,45.00
2018-08-20T08:16:52.580Z,45.00
2018-08-20T08:19:20.691Z,45.00
2018-08-20T08:21:48.804Z,45.00
2018-08-20T08:24:16.928Z,44.90
2018-08-20T08:26:45.053Z,44.90
2018-08-20T08:29:13.173Z,44.90
2018-08-20T08:31:41.280Z,44.90
2018-08-20T08:34:09.373Z,44.80
2018-08-20T08:36:37.492Z,44.60
2018-08-20T08:39:08.583Z,44.50
2018-08-20T08:41:36.712Z,44.60
2018-08-20T08:44:04.816Z,44.70
2018-08-20T08:46:32.950Z,45.00
2018-08-20T08:49:01.067Z,45.20
2018-08-20T08:51:29.188Z,45.30
2018-08-20T08:53:57.316Z,45.50
2018-08-20T08:56:25.444Z,45.30
2018-08-20T08:58:53.563Z,45.30
2018-08-20T09:01:21.669Z,44.80
2018-08-20T09:03:49.787Z,44.70
2018-08-20T09:06:17.919Z,44.50
2018-08-20T09:08:46.024Z,44.20
2018-08-20T09:11:14.139Z,44.10
2018-08-20T09:13:42.315Z,44.30
2018-08-20T09:16:11.051Z,44.20
2018-08-20T09:18:39.161Z,43.70
2018-08-20T09:21:07.328Z,43.90
2018-08-20T09:23:35.433Z,43.80
2018-08-20T09:26:03.556Z,43.50
2018-08-20T09:28:31.659Z,43.40
2018-08-20T09:30:59.799Z,43.70
2018-08-20T09:33:29.555Z,44.70
2018-08-20T09:35:57.823Z,44.50
2018-08-20T09:38:25.999Z,44.90
2018-08-20T09:40:55.101Z,45.50
2018-08-20T09:43:23.247Z,45.80
2018-08-20T09:45:52.368Z,45.90
2018-08-20T09:48:20.644Z,45.90
2018-08-20T09:50:48.787Z,45.80
2018-08-20T09:53:16.915Z,45.70
2018-08-20T09:55:45.009Z,45.80
2018-08-20T09:58:13.095Z,45.90
2018-08-20T10:00:41.740Z,46.10
2018-08-20T10:03:10.204Z,46.00
2018-08-20T10:05:38.319Z,46.30
2018-08-20T10:08:06.452Z,46.30
2018-08-20T10:10:34.566Z,46.10
2018-08-20T10:13:02.697Z,45.70
2018-08-20T10:15:31.251Z,44.90
2018-08-20T10:17:59.373Z,44.70
2018-08-20T10:20:27.588Z,43.50
2018-08-20T10:22:55.726Z,43.00
2018-08-20T10:25:23.843Z,42.90
2018-08-20T10:27:51.964Z,42.80
2018-08-20T10:30:20.093Z,42.50
2018-08-20T10:32:48.225Z,42.30
2018-08-20T10:35:16.353Z,42.50
2018-08-20T10:37:44.601Z,43.10
2018-08-20T10:40:12.590Z,43.60
2018-08-20T10:42:40.731Z,44.20
2018-08-20T10:45:15.200Z,43.60
2018-08-20T10:47:44.407Z,43.70
2018-08-20T10:50:15.495Z,43.80
2018-08-20T10:52:44.838Z,44.00
2018-08-20T10:55:12.978Z,44.30
2018-08-20T10:57:41.433Z,44.40
2018-08-20T11:00:10.270Z,44.50
2018-08-20T11:02:38.412Z,44.50
2018-08-20T11:05:08.767Z,44.30
2018-08-20T11:07:36.952Z,44.40
2018-08-20T11:10:05.144Z,44.40
2018-08-20T11:12:33.249Z,44.40
2018-08-20T11:15:01.348Z,44.00
2018-08-20T11:17:29.483Z,43.90
2018-08-20T11:19:57.589Z,43.80
2018-08-20T11:22:25.703Z,43.50
2018-08-20T11:24:53.800Z,42.90
2018-08-20T11:27:21.933Z,42.00
2018-08-20T11:29:50.047Z,42.50
2018-08-20T11:32:18.172Z,43.20
2018-08-20T11:34:46.288Z,43.50
2018-08-20T11:37:14.432Z,43.60
2018-08-20T11:39:42.562Z,44.10
2018-08-20T11:42:10.690Z,44.20
2018-08-20T11:44:38.811Z,44.60
2018-08-20T11:47:06.924Z,44.80
2018-08-20T11:49:35.078Z,45.10
2018-08-20T11:52:03.311Z,45.40
2018-08-20T11:54:31.481Z,45.10
2018-08-20T11:56:59.683Z,44.80
2018-08-20T11:59:27.887Z,44.70
2018-08-20T12:01:56.081Z,44.60
2018-08-20T12:04:24.492Z,45.30
2018-08-20T12:06:52.600Z,45.00
2018-08-20T12:09:20.683Z,44.90
2018-08-20T12:11:48.783Z,45.10
2018-08-20T12:14:16.904Z,45.10
2018-08-20T12:16:45.027Z,45.30
2018-08-20T12:19:13.153Z,45.20
2018-08-20T12:21:41.276Z,45.20
2018-08-20T12:24:09.413Z,45.00
2018-08-20T12:26:37.551Z,45.00
2018-08-20T12:29:05.771Z,44.80
2018-08-20T12:31:33.900Z,44.90
2018-08-20T12:34:02.019Z,45.00
2018-08-20T12:36:30.147Z,44.90
2018-08-20T12:38:58.260Z,44.80
2018-08-20T12:41:26.400Z,44.70
2018-08-20T12:43:55.093Z,44.80
2018-08-20T12:46:23.212Z,44.90
2018-08-20T12:48:52.197Z,44.90
2018-08-20T12:51:21.092Z,45.00
2018-08-20T12:53:49.237Z,45.10
2018-08-20T12:56:17.456Z,45.40
2018-08-20T12:58:48.931Z,45.50
2018-08-20T13:01:17.036Z,45.60
2018-08-20T13:03:45.492Z,45.70
2018-08-20T13:06:13.600Z,45.70
2018-08-20T13:08:41.728Z,45.90
2018-08-20T13:11:09.857Z,45.80
2018-08-20T13:13:38.011Z,46.20
2018-08-20T13:16:06.821Z,46.20
2018-08-20T13:18:34.722Z,46.10
2018-08-20T13:21:02.852Z,46.00
2018-08-20T13:23:30.938Z,46.00
2018-08-20T13:25:59.085Z,46.00
2018-08-20T13:28:27.188Z,46.00
2018-08-20T13:30:55.431Z,46.20
2018-08-20T13:33:23.532Z,46.20
2018-08-20T13:35:51.655Z,46.30
2018-08-20T13:38:19.781Z,46.50
2018-08-20T13:40:47.963Z,46.60
2018-08-20T13:43:16.080Z,46.60
2018-08-20T13:45:44.205Z,46.90
2018-08-20T13:48:12.299Z,46.90
2018-08-20T13:50:40.543Z,46.80
2018-08-20T13:53:08.660Z,46.80
2018-08-20T13:55:36.820Z,46.80
2018-08-20T13:58:04.995Z,46.50
2018-08-20T14:00:33.582Z,46.30
2018-08-20T14:03:01.786Z,46.00
2018-08-20T14:05:30.313Z,45.90
2018-08-20T14:07:58.480Z,45.40
2018-08-20T14:10:28.113Z,45.20
2018-08-20T14:12:56.326Z,45.20
2018-08-20T14:15:24.447Z,45.30
2018-08-20T14:17:52.628Z,45.30
2018-08-20T14:20:20.768Z,45.50
2018-08-20T14:22:48.944Z,45.60
2018-08-20T14:25:17.048Z,45.60
2018-08-20T14:27:45.172Z,45.80
2018-08-20T14:30:14.538Z,46.00
2018-08-20T14:32:43.124Z,46.80
2018-08-20T14:35:11.575Z,46.20
2018-08-20T14:37:40.063Z,46.20
2018-08-20T14:40:15.662Z,46.00
2018-08-20T14:42:44.086Z,45.90
2018-08-20T14:45:13.520Z,45.70
2018-08-20T14:47:42.594Z,45.60
2018-08-20T14:50:12.605Z,45.70
2018-08-20T14:52:40.951Z,45.60
2018-08-20T14:55:09.372Z,45.80
2018-08-20T14:57:37.553Z,45.70
2018-08-20T15:00:07.069Z,45.80
2018-08-20T15:02:35.265Z,46.30
2018-08-20T15:05:03.336Z,45.80
2018-08-20T15:07:31.481Z,46.00
2018-08-20T15:09:59.584Z,45.90
2018-08-20T15:12:27.750Z,46.00
2018-08-20T15:14:55.882Z,46.00
2018-08-20T15:17:24.018Z,46.20
2018-08-20T15:19:52.132Z,46.40
2018-08-20T15:22:20.320Z,46.50
2018-08-20T15:24:48.428Z,46.60
2018-08-20T15:27:22.969Z,46.70
2018-08-20T15:29:51.062Z,46.70
2018-08-20T15:32:19.223Z,46.80
2018-08-20T15:34:47.299Z,46.70
2018-08-20T15:37:15.453Z,46.90
2018-08-20T15:39:43.715Z,46.90
2018-08-20T15:42:11.956Z,46.80
2018-08-20T15:44:40.172Z,46.80
2018-08-20T15:47:08.423Z,47.00
2018-08-20T15:49:36.571Z,47.10
2018-08-20T15:52:04.754Z,47.20
2018-08-20T15:54:39.664Z,46.90
2018-08-20T15:57:07.820Z,47.00
2018-08-20T15:59:35.940Z,47.20
2018-08-20T16:02:04.164Z,47.30
2018-08-20T16:04:32.244Z,47.50
2018-08-20T16:07:00.436Z,47.40
2018-08-20T16:09:28.624Z,47.40
2018-08-20T16:11:56.789Z,47.10
2018-08-20T16:14:24.875Z,47.20
2018-08-20T16:16:52.991Z,47.40
2018-08-20T16:19:21.393Z,47.20
2018-08-20T16:21:49.548Z,47.20
2018-08-20T16:24:17.695Z,47.10
2018-08-20T16:26:45.929Z,47.10
2018-08-20T16:29:14.190Z,47.00
2018-08-20T16:31:42.296Z,47.20
2018-08-20T16:34:10.412Z,47.10
2018-08-20T16:36:38.525Z,47.10
2018-08-20T16:39:10.478Z,47.20
2018-08-20T16:41:38.806Z,47.20
2018-08-20T16:44:07.490Z,47.40
2018-08-20T16:46:35.611Z,47.30
2018-08-20T16:49:03.792Z,47.40
2018-08-20T16:51:32.814Z,47.40
2018-08-20T16:54:00.907Z,47.30
2018-08-20T16:56:29.183Z,47.10
2018-08-20T16:58:57.308Z,47.00
2018-08-20T17:01:25.400Z,46.80
2018-08-20T17:03:53.500Z,46.60
2018-08-20T17:06:21.611Z,46.60
2018-08-20T17:08:49.712Z,46.50
2018-08-20T17:11:17.856Z,46.10
2018-08-20T17:13:45.991Z,46.30
2018-08-20T17:16:15.276Z,46.50
2018-08-20T17:18:43.418Z,46.40
2018-08-20T17:21:11.529Z,46.30
2018-08-20T17:23:39.721Z,46.30
2018-08-20T17:26:07.989Z,46.20
2018-08-20T17:28:36.114Z,46.40
2018-08-20T17:31:09.512Z,46.50
2018-08-20T17:33:37.532Z,46.50
2018-08-20T17:36:07.407Z,46.50
2018-08-20T17:38:35.578Z,46.80
2018-08-20T17:41:03.738Z,46.70
2018-08-20T17:43:31.955Z,46.80
2018-08-20T17:46:00.095Z,46.80
2018-08-20T17:48:29.677Z,46.90
2018-08-20T17:50:58.181Z,47.20
2018-08-20T17:53:36.256Z,48.00
2018-08-20T17:56:04.385Z,47.40
2018-08-20T17:58:32.480Z,47.40
2018-08-20T18:01:00.631Z,47.70
2018-08-20T18:03:30.673Z,47.60
2018-08-20T18:06:11.304Z,47.40
2018-08-20T18:08:46.133Z,47.60
2018-08-20T18:11:14.287Z,47.70
2018-08-20T18:13:44.922Z,47.70
2018-08-20T18:16:14.171Z,47.70
2018-08-20T18:18:44.027Z,47.60
2018-08-20T18:21:12.159Z,47.60
2018-08-20T18:23:40.284Z,47.70
2018-08-20T18:26:08.455Z,47.80
2018-08-20T18:28:41.707Z,47.90
2018-08-20T18:31:11.574Z,47.90
2018-08-20T18:33:40.716Z,47.70
2018-08-20T18:36:16.711Z,47.70
2018-08-20T18:39:05.924Z,47.70
2018-08-20T18:41:51.250Z,47.80
2018-08-20T18:44:20.017Z,47.90
2018-08-20T18:46:48.567Z,47.80
2018-08-20T18:49:16.720Z,47.80
2018-08-20T18:51:44.812Z,47.90
2018-08-20T18:54:12.947Z,48.00
2018-08-20T18:56:42.136Z,48.00
2018-08-20T18:59:10.260Z,48.00
2018-08-20T19:01:38.372Z,48.00
2018-08-20T19:04:06.472Z,47.90
2018-08-20T19:06:34.564Z,47.90
2018-08-20T19:09:02.699Z,48.00
2018-08-20T19:11:30.797Z,47.90
2018-08-20T19:14:03.245Z,48.00
2018-08-20T19:16:35.141Z,48.00
2018-08-20T19:19:03.432Z,48.00
2018-08-20T19:21:31.533Z,48.00
2018-08-20T19:24:00.559Z,47.90
2018-08-20T19:26:29.880Z,48.00
2018-08-20T19:28:58.091Z,47.90
2018-08-20T19:34:00.748Z,47.90
2018-08-20T19:36:28.913Z,47.90
2018-08-20T19:38:57.020Z,47.90
2018-08-20T19:41:25.186Z,47.70
2018-08-20T19:43:53.295Z,47.70
2018-08-20T19:46:30.636Z,47.80
2018-08-20T19:49:04.454Z,47.80
2018-08-20T19:51:34.159Z,47.90
2018-08-20T19:54:02.328Z,48.00
2018-08-20T19:56:30.503Z,48.00
2018-08-20T19:58:58.607Z,48.00
2018-08-20T20:01:26.731Z,47.90
2018-08-20T20:03:54.893Z,47.90
2018-08-20T20:06:23.024Z,48.00
2018-08-20T20:08:51.148Z,48.00
2018-08-20T20:11:24.800Z,48.00
2018-08-20T20:13:56.743Z,48.00
2018-08-20T20:16:25.241Z,48.10
2018-08-20T20:18:53.736Z,48.10
2018-08-20T20:21:22.387Z,48.20
2018-08-20T20:23:50.549Z,48.10
2018-08-20T20:26:18.820Z,48.00
2018-08-20T20:28:46.915Z,48.00
2018-08-20T20:31:15.015Z,48.10
2018-08-20T20:33:43.178Z,48.70
2018-08-20T20:36:15.751Z,48.10
2018-08-20T20:38:44.218Z,48.00
2018-08-20T20:41:12.223Z,48.10
2018-08-20T20:43:40.360Z,48.00
2018-08-20T20:46:09.838Z,48.00
2018-08-20T20:48:38.346Z,48.70
2018-08-20T20:51:06.700Z,48.00
2018-08-20T20:53:34.814Z,48.10
2018-08-20T20:56:02.915Z,48.20
2018-08-20T20:58:37.021Z,48.00
2018-08-20T21:01:06.315Z,48.00
2018-08-20T21:03:34.772Z,48.20
2018-08-20T21:06:03.528Z,48.10
2018-08-20T21:08:37.085Z,48.20
2018-08-20T21:11:05.367Z,48.20
2018-08-20T21:13:33.447Z,48.20
2018-08-20T21:16:05.356Z,48.40
2018-08-20T21:18:34.187Z,48.40
2018-08-20T21:21:02.435Z,48.20
2018-08-20T21:23:30.684Z,48.20
2018-08-20T21:25:58.797Z,48.90
2018-08-20T21:29:01.482Z,48.20
2018-08-20T21:31:31.753Z,48.30
2018-08-20T21:34:01.035Z,48.30
2018-08-20T21:36:29.164Z,48.30
2018-08-20T21:38:57.258Z,48.40
2018-08-20T21:41:27.115Z,48.40
2018-08-20T21:43:55.236Z,48.40
2018-08-20T21:46:23.376Z,48.50
2018-08-20T21:48:51.498Z,48.40
2018-08-20T21:51:27.400Z,48.40
2018-08-20T21:53:55.596Z,48.30
2018-08-20T21:56:23.873Z,48.30
2018-08-20T21:58:51.966Z,48.40
2018-08-20T22:01:20.227Z,48.40
2018-08-20T22:03:48.196Z,48.40
2018-08-20T22:06:16.287Z,48.30
2018-08-20T22:08:44.412Z,48.20
2018-08-20T22:11:12.540Z,48.40
2018-08-20T22:13:40.678Z,48.30
2018-08-20T22:16:24.767Z,48.50
2018-08-20T22:18:53.959Z,48.40
2018-08-20T22:21:22.119Z,48.40
2018-08-20T22:23:50.218Z,48.30
2018-08-20T22:26:19.683Z,48.30
2018-08-20T22:28:49.706Z,48.30
2018-08-20T22:31:17.995Z,48.30
2018-08-20T22:33:53.175Z,48.30
2018-08-20T22:36:21.280Z,48.30
2018-08-20T22:38:52.151Z,48.30
2018-08-20T22:41:20.958Z,48.30
2018-08-20T22:43:49.316Z,48.30
2018-08-20T22:46:17.884Z,48.20
2018-08-20T22:48:46.784Z,48.30
2018-08-20T22:51:18.352Z,48.30
2018-08-20T22:53:51.591Z,48.30
2018-08-20T22:56:27.183Z,48.30
2018-08-20T22:58:58.328Z,48.30
2018-08-20T23:01:26.506Z,48.30
2018-08-20T23:03:54.677Z,48.20
2018-08-20T23:06:22.919Z,48.20
2018-08-20T23:08:51.049Z,48.20
2018-08-20T23:11:53.532Z,48.20
2018-08-20T23:14:21.678Z,48.20
2018-08-20T23:16:50.928Z,48.70
2018-08-20T23:19:19.148Z,48.20
2018-08-20T23:21:47.891Z,48.10
2018-08-20T23:24:16.648Z,48.20
2018-08-20T23:26:44.752Z,48.20
2018-08-20T23:29:12.930Z,48.20
2018-08-20T23:31:41.267Z,48.00
2018-08-20T23:34:11.421Z,48.00
2018-08-20T23:36:39.911Z,48.10
2018-08-20T23:39:09.054Z,48.20
2018-08-20T23:41:37.253Z,48.10
2018-08-20T23:44:05.389Z,48.10
2018-08-20T23:46:36.463Z,48.00
2018-08-20T23:49:04.637Z,48.00
2018-08-20T23:51:32.790Z,48.10
2018-08-20T23:54:00.934Z,48.20
2018-08-20T23:56:29.143Z,48.20
2018-08-20T23:58:57.469Z,48.10
